createdAt,value
2022-10-10T00:01:22.539Z,100502.72
2022-10-10T00:03:50.285Z,100503.50
2022-10-10T00:06:18.001Z,100506.97
2022-10-10T00:08:46.290Z,100503.88
2022-10-10T00:11:15.787Z,100499.75
2022-10-10T00:13:43.983Z,100498.50
2022-10-10T00:16:12.005Z,100499.41
2022-10-10T00:18:40.668Z,100487.16
2022-10-10T00:21:08.850Z,100493.53
2022-10-10T00:23:36.489Z,100495.69
2022-10-10T00:26:08.724Z,100496.69
2022-10-10T00:28:38.790Z,100494.31
2022-10-10T00:31:08.980Z,100497.81
2022-10-10T00:33:37.480Z,100492.81
2022-10-10T00:36:06.283Z,100480.16
2022-10-10T00:38:34.545Z,100488.47
2022-10-10T00:41:02.201Z,100480.22
2022-10-10T00:43:30.225Z,100478.59
2022-10-10T00:45:58.117Z,100478.59
2022-10-10T00:48:28.948Z,100479.38
2022-10-10T00:51:00.476Z,100471.34
2022-10-10T00:53:51.880Z,100464.97
2022-10-10T00:56:21.970Z,100462.41
2022-10-10T00:58:52.921Z,100466.06
2022-10-10T01:01:20.419Z,100461.59
2022-10-10T01:03:48.044Z,100461.22
2022-10-10T01:06:15.904Z,100451.16
2022-10-10T01:08:43.390Z,100449.44
2022-10-10T01:11:29.329Z,100448.69
2022-10-10T01:14:12.935Z,100451.00
2022-10-10T01:17:01.809Z,100449.38
2022-10-10T01:19:53.934Z,100454.81
2022-10-10T01:22:49.996Z,100453.50
2022-10-10T01:25:38.851Z,100447.97
2022-10-10T01:28:37.443Z,100453.09
2022-10-10T01:31:06.521Z,100445.72
2022-10-10T01:34:01.536Z,100448.50
2022-10-10T01:36:51.063Z,100437.97
2022-10-10T01:39:24.174Z,100441.44
2022-10-10T01:41:57.434Z,100446.50
2022-10-10T01:44:24.849Z,100437.00
2022-10-10T01:46:52.536Z,100437.56
2022-10-10T01:49:22.702Z,100439.44
2022-10-10T01:52:06.197Z,100444.22
2022-10-10T01:54:42.302Z,100434.94
2022-10-10T01:57:28.471Z,100439.78
2022-10-10T01:59:59.285Z,100439.16
2022-10-10T02:02:48.468Z,100452.47
2022-10-10T02:05:37.354Z,100451.19
2022-10-10T02:08:09.071Z,100443.03
2022-10-10T02:10:51.741Z,100444.59
2022-10-10T02:13:19.531Z,100435.00
2022-10-10T02:15:53.430Z,100438.41
2022-10-10T02:18:22.970Z,100441.38
2022-10-10T02:20:51.712Z,100441.78
2022-10-10T02:23:21.035Z,100436.72
2022-10-10T02:25:52.710Z,100434.75
2022-10-10T02:28:43.543Z,100432.69
2022-10-10T02:31:14.911Z,100441.19
2022-10-10T02:33:47.013Z,100436.97
2022-10-10T02:36:16.283Z,100440.66
2022-10-10T02:38:45.133Z,100447.06
2022-10-10T02:41:14.946Z,100440.47
2022-10-10T02:43:42.536Z,100439.25
2022-10-10T02:46:12.661Z,100441.44
2022-10-10T02:48:40.658Z,100442.44
2022-10-10T02:51:08.632Z,100441.47
2022-10-10T02:53:37.449Z,100445.00
2022-10-10T02:56:05.449Z,100438.00
2022-10-10T02:58:32.946Z,100445.31
2022-10-10T03:01:00.717Z,100433.19
2022-10-10T03:03:28.254Z,100427.72
2022-10-10T03:05:55.720Z,100430.09
2022-10-10T03:08:23.402Z,100429.97
2022-10-10T03:10:55.928Z,100434.13
2022-10-10T03:13:24.025Z,100429.06
2022-10-10T03:15:51.961Z,100435.53
2022-10-10T03:18:19.549Z,100435.03
2022-10-10T03:20:51.064Z,100431.94
2022-10-10T03:23:19.651Z,100431.66
2022-10-10T03:25:47.302Z,100428.50
2022-10-10T03:28:15.234Z,100422.00
2022-10-10T03:30:42.937Z,100425.16
2022-10-10T03:33:10.806Z,100428.84
2022-10-10T03:35:38.370Z,100430.22
2022-10-10T03:38:06.397Z,100430.22
2022-10-10T03:40:34.586Z,100427.88
2022-10-10T03:43:01.994Z,100429.09
2022-10-10T03:45:29.404Z,100427.37
2022-10-10T03:47:57.104Z,100430.22
2022-10-10T03:50:24.582Z,100428.03
2022-10-10T03:52:52.397Z,100426.41
2022-10-10T03:55:20.374Z,100422.72
2022-10-10T03:57:47.823Z,100424.31
2022-10-10T04:00:15.320Z,100422.34
2022-10-10T04:02:43.170Z,100416.13
2022-10-10T04:05:10.645Z,100424.09
2022-10-10T04:07:38.310Z,100420.50
2022-10-10T04:10:06.530Z,100411.22
2022-10-10T04:12:34.016Z,100422.97
2022-10-10T04:15:01.491Z,100417.34
2022-10-10T04:17:29.168Z,100415.38
2022-10-10T04:19:56.617Z,100415.03
2022-10-10T04:22:24.076Z,100413.19
2022-10-10T04:24:51.717Z,100417.00
2022-10-10T04:27:19.225Z,100411.81
2022-10-10T04:29:46.605Z,100417.25
2022-10-10T04:32:14.362Z,100419.16
2022-10-10T04:34:41.762Z,100424.66
2022-10-10T04:37:09.203Z,100414.38
2022-10-10T04:39:36.935Z,100414.13
2022-10-10T04:42:04.616Z,100419.56
2022-10-10T04:44:32.100Z,100416.09
2022-10-10T04:46:59.837Z,100430.03
2022-10-10T04:49:27.331Z,100430.78
2022-10-10T04:51:54.762Z,100419.06
2022-10-10T04:54:22.558Z,100423.56
2022-10-10T04:56:50.020Z,100430.59
2022-10-10T04:59:17.532Z,100423.84
2022-10-10T05:01:45.212Z,100430.47
2022-10-10T05:04:13.646Z,100433.00
2022-10-10T05:06:41.044Z,100426.87
2022-10-10T05:09:08.698Z,100434.47
2022-10-10T05:11:36.249Z,100429.12
2022-10-10T05:14:04.156Z,100427.37
2022-10-10T05:16:31.806Z,100424.53
2022-10-10T05:18:59.259Z,100429.81
2022-10-10T05:21:26.663Z,100425.66
2022-10-10T05:23:54.620Z,100425.41
2022-10-10T05:26:22.062Z,100430.56
2022-10-10T05:28:49.505Z,100426.13
2022-10-10T05:31:17.225Z,100437.25
2022-10-10T05:33:44.646Z,100429.78
2022-10-10T05:36:13.791Z,100432.25
2022-10-10T05:38:42.038Z,100437.81
2022-10-10T05:41:09.609Z,100436.44
2022-10-10T05:43:37.056Z,100434.75
2022-10-10T05:46:05.286Z,100435.75
2022-10-10T05:48:32.793Z,100437.06
2022-10-10T05:51:00.808Z,100435.81
2022-10-10T05:53:30.198Z,100438.88
2022-10-10T05:55:57.696Z,100440.72
2022-10-10T05:58:26.384Z,100435.34
2022-10-10T06:00:54.257Z,100440.63
2022-10-10T06:03:21.978Z,100443.28
2022-10-10T06:05:51.738Z,100449.66
2022-10-10T06:08:19.154Z,100449.91
2022-10-10T06:10:47.225Z,100448.56
2022-10-10T06:13:21.629Z,100453.81
2022-10-10T06:15:52.336Z,100440.59
2022-10-10T06:18:19.774Z,100449.66
2022-10-10T06:20:47.219Z,100437.53
2022-10-10T06:23:14.959Z,100435.22
2022-10-10T06:25:42.481Z,100435.69
2022-10-10T06:28:10.900Z,100439.59
2022-10-10T06:30:44.978Z,100441.34
2022-10-10T06:33:13.081Z,100445.03
2022-10-10T06:35:48.508Z,100439.00
2022-10-10T06:38:16.989Z,100434.25
2022-10-10T06:40:45.558Z,100439.50
2022-10-10T06:43:14.835Z,100441.56
2022-10-10T06:45:44.680Z,100437.56
2022-10-10T06:48:14.026Z,100439.03
2022-10-10T06:50:42.177Z,100445.22
2022-10-10T06:53:09.562Z,100445.75
2022-10-10T06:55:37.269Z,100447.66
2022-10-10T06:58:04.773Z,100444.88
2022-10-10T07:00:32.241Z,100446.38
2022-10-10T07:02:59.932Z,100446.00
2022-10-10T07:05:27.386Z,100442.25
2022-10-10T07:07:54.817Z,100447.63
2022-10-10T07:10:22.509Z,100445.34
2022-10-10T07:12:49.985Z,100454.41
2022-10-10T07:15:17.479Z,100450.75
2022-10-10T07:17:46.569Z,100445.75
2022-10-10T07:20:16.858Z,100446.00
2022-10-10T07:22:44.273Z,100448.59
2022-10-10T07:25:11.962Z,100452.47
2022-10-10T07:27:39.394Z,100453.72
2022-10-10T07:30:07.337Z,100450.22
2022-10-10T07:32:35.041Z,100445.97
2022-10-10T07:35:02.674Z,100448.41
2022-10-10T07:37:30.041Z,100446.22
2022-10-10T07:39:57.857Z,100454.47
2022-10-10T07:42:25.290Z,100449.56
2022-10-10T07:44:52.713Z,100449.19
2022-10-10T07:47:20.451Z,100443.28
2022-10-10T07:49:47.873Z,100446.94
2022-10-10T07:52:15.664Z,100445.59
2022-10-10T07:54:43.426Z,100440.09
2022-10-10T07:57:10.877Z,100444.78
2022-10-10T07:59:40.660Z,100452.00
2022-10-10T08:02:09.607Z,100449.44
2022-10-10T08:04:37.362Z,100444.72
2022-10-10T08:07:04.796Z,100442.47
2022-10-10T08:09:32.390Z,100441.78
2022-10-10T08:12:00.435Z,100446.00
2022-10-10T08:14:27.955Z,100438.22
2022-10-10T08:16:55.374Z,100436.06
2022-10-10T08:19:23.070Z,100444.41
2022-10-10T08:21:50.633Z,100440.34
2022-10-10T08:24:18.048Z,100438.56
2022-10-10T08:26:45.829Z,100451.56
2022-10-10T08:29:13.294Z,100429.81
2022-10-10T08:31:40.684Z,100430.16
2022-10-10T08:34:09.420Z,100426.47
2022-10-10T08:36:36.906Z,100426.84
2022-10-10T08:39:04.436Z,100427.31
2022-10-10T08:41:41.653Z,100421.53
2022-10-10T08:44:21.894Z,100424.59
2022-10-10T08:47:05.148Z,100413.81
2022-10-10T08:49:39.454Z,100418.28
2022-10-10T08:52:13.393Z,100406.81
2022-10-10T08:54:41.957Z,100418.47
2022-10-10T08:57:24.626Z,100405.91
2022-10-10T08:59:55.172Z,100401.44
2022-10-10T09:02:55.845Z,100403.22
2022-10-10T09:05:52.641Z,100412.28
2022-10-10T09:08:29.989Z,100415.12
2022-10-10T09:11:10.459Z,100405.31
2022-10-10T09:14:06.064Z,100400.69
2022-10-10T09:17:21.675Z,100404.50
2022-10-10T09:19:59.067Z,100409.41
2022-10-10T09:22:31.409Z,100403.16
2022-10-10T09:25:21.734Z,100399.56
2022-10-10T09:28:01.809Z,100399.84
2022-10-10T09:30:31.677Z,100400.31
2022-10-10T09:33:28.709Z,100399.72
2022-10-10T09:35:58.315Z,100398.56
2022-10-10T09:38:41.843Z,100403.28
2022-10-10T09:41:28.466Z,100401.84
2022-10-10T09:43:57.316Z,100402.72
2022-10-10T09:46:26.011Z,100399.44
2022-10-10T09:48:54.859Z,100395.12
2022-10-10T09:51:22.430Z,100397.72
2022-10-10T09:53:50.591Z,100399.53
2022-10-10T09:56:38.802Z,100390.34
2022-10-10T09:59:06.529Z,100391.28
2022-10-10T10:01:34.099Z,100381.97
2022-10-10T10:04:34.242Z,100383.03
2022-10-10T10:07:20.448Z,100383.09
2022-10-10T10:09:50.401Z,100383.78
2022-10-10T10:12:23.062Z,100378.94
2022-10-10T10:14:53.086Z,100397.31
2022-10-10T10:17:22.498Z,100380.50
2022-10-10T10:19:50.496Z,100382.91
2022-10-10T10:22:33.174Z,100375.81
2022-10-10T10:25:32.014Z,100378.75
2022-10-10T10:28:11.717Z,100376.50
2022-10-10T10:30:40.349Z,100368.75
2022-10-10T10:33:46.155Z,100366.75
2022-10-10T10:36:46.209Z,100364.03
2022-10-10T10:39:35.410Z,100371.25
2022-10-10T10:42:08.035Z,100362.59
2022-10-10T10:45:17.213Z,100353.56
2022-10-10T10:47:56.113Z,100351.34
2022-10-10T10:50:45.598Z,100347.25
2022-10-10T10:53:28.802Z,100343.00
2022-10-10T10:56:46.198Z,100343.00
2022-10-10T11:00:26.173Z,100338.50
2022-10-10T11:02:31.248Z,100334.00
2022-10-10T11:05:31.107Z,100337.28
2022-10-10T11:08:36.748Z,100329.91
2022-10-10T11:11:18.644Z,100323.50
2022-10-10T11:13:52.627Z,100328.28
2022-10-10T11:16:47.273Z,100319.66
2022-10-10T11:19:15.077Z,100318.41
2022-10-10T11:21:54.989Z,100314.84
2022-10-10T11:24:39.542Z,100308.78
2022-10-10T11:27:14.198Z,100308.91
2022-10-10T11:29:54.057Z,100310.53
2022-10-10T11:32:28.554Z,100300.88
2022-10-10T11:35:03.883Z,100298.97
2022-10-10T11:37:34.721Z,100297.50
2022-10-10T11:40:06.115Z,100286.22
2022-10-10T11:42:38.183Z,100288.09
2022-10-10T11:45:30.974Z,100287.28
2022-10-10T11:48:21.742Z,100278.69
2022-10-10T11:50:54.255Z,100278.41
2022-10-10T11:53:37.544Z,100275.38
2022-10-10T11:56:38.106Z,100274.59
2022-10-10T11:59:45.922Z,100277.66
2022-10-10T12:02:23.347Z,100272.44
2022-10-10T12:04:53.631Z,100270.81
2022-10-10T12:07:43.973Z,100267.69
2022-10-10T12:10:17.651Z,100259.72
2022-10-10T12:12:47.403Z,100253.03
2022-10-10T12:15:29.411Z,100250.37
2022-10-10T12:17:57.242Z,100256.28
2022-10-10T12:20:28.014Z,100244.56
2022-10-10T12:23:28.017Z,100246.00
2022-10-10T12:25:55.756Z,100248.00
2022-10-10T12:28:27.058Z,100236.22
2022-10-10T12:30:58.717Z,100239.50
2022-10-10T12:33:26.716Z,100237.06
2022-10-10T12:35:54.206Z,100241.06
2022-10-10T12:38:25.800Z,100235.72
2022-10-10T12:41:08.527Z,100243.16
2022-10-10T12:43:40.637Z,100241.88
2022-10-10T12:46:25.410Z,100238.88
2022-10-10T12:49:00.186Z,100236.28
2022-10-10T12:51:29.341Z,100240.31
2022-10-10T12:53:58.567Z,100239.53
2022-10-10T12:57:04.316Z,100238.16
2022-10-10T12:59:35.255Z,100236.22
2022-10-10T13:02:06.705Z,100237.06
2022-10-10T13:04:34.500Z,100227.31
2022-10-10T13:07:02.271Z,100218.88
2022-10-10T13:09:35.609Z,100223.22
2022-10-10T13:12:06.461Z,100219.28
2022-10-10T13:14:42.774Z,100207.97
2022-10-10T13:17:41.158Z,100220.63
2022-10-10T13:20:27.188Z,100220.72
2022-10-10T13:22:56.099Z,100210.34
2022-10-10T13:25:24.159Z,100210.03
2022-10-10T13:27:51.804Z,100199.81
2022-10-10T13:30:21.122Z,100202.31
2022-10-10T13:32:50.026Z,100202.41
2022-10-10T13:35:20.806Z,100202.19
2022-10-10T13:37:58.424Z,100204.31
2022-10-10T13:40:27.026Z,100206.50
2022-10-10T13:42:55.138Z,100202.03
2022-10-10T13:45:26.615Z,100195.56
2022-10-10T13:48:00.854Z,100192.66
2022-10-10T13:50:34.123Z,100195.06
2022-10-10T13:53:26.521Z,100189.87
2022-10-10T13:56:09.250Z,100185.16
2022-10-10T13:58:42.866Z,100187.41
2022-10-10T14:01:25.880Z,100191.66
2022-10-10T14:03:55.729Z,100187.44
2022-10-10T14:06:26.063Z,100185.94
2022-10-10T14:08:55.178Z,100175.03
2022-10-10T14:11:24.271Z,100173.53
2022-10-10T14:13:54.225Z,100165.47
2022-10-10T14:16:24.397Z,100168.59
2022-10-10T14:18:52.568Z,100171.69
2022-10-10T14:21:20.308Z,100166.41
2022-10-10T14:23:48.522Z,100167.47
2022-10-10T14:26:18.956Z,100163.78
2022-10-10T14:28:46.899Z,100163.28
2022-10-10T14:31:15.294Z,100165.16
2022-10-10T14:33:42.830Z,100164.12
2022-10-10T14:36:12.199Z,100164.62
2022-10-10T14:38:40.044Z,100160.88
2022-10-10T14:41:07.747Z,100157.34
2022-10-10T14:43:35.283Z,100154.94
2022-10-10T14:46:03.090Z,100149.34
2022-10-10T14:48:30.541Z,100152.03
2022-10-10T14:50:57.985Z,100153.06
2022-10-10T14:53:25.812Z,100144.03
2022-10-10T14:55:56.289Z,100153.38
2022-10-10T14:58:23.970Z,100146.75
2022-10-10T15:00:53.137Z,100147.28
2022-10-10T15:03:21.255Z,100141.00
2022-10-10T15:05:49.049Z,100136.75
2022-10-10T15:08:18.739Z,100146.09
2022-10-10T15:10:46.767Z,100138.44
2022-10-10T15:13:15.654Z,100144.22
2022-10-10T15:15:43.347Z,100138.78
2022-10-10T15:18:32.067Z,100142.50
2022-10-10T15:20:58.883Z,100143.88
2022-10-10T15:23:27.080Z,100142.00
2022-10-10T15:25:54.576Z,100141.66
2022-10-10T15:28:22.330Z,100134.19
2022-10-10T15:30:49.781Z,100139.63
2022-10-10T15:33:17.267Z,100139.66
2022-10-10T15:36:08.034Z,100137.09
2022-10-10T15:38:34.720Z,100135.37
2022-10-10T15:41:05.174Z,100140.16
2022-10-10T15:43:42.536Z,100136.91
2022-10-10T15:46:10.649Z,100138.13
2022-10-10T15:48:38.182Z,100135.72
2022-10-10T15:51:07.285Z,100127.03
2022-10-10T15:53:35.433Z,100127.91
2022-10-10T15:56:10.232Z,100126.72
2022-10-10T15:58:38.957Z,100127.03
2022-10-10T16:01:15.539Z,100132.66
2022-10-10T16:03:43.665Z,100141.28
2022-10-10T16:06:11.540Z,100137.56
2022-10-10T16:08:39.356Z,100130.59
2022-10-10T16:11:09.771Z,100139.75
2022-10-10T16:13:39.312Z,100135.16
2022-10-10T16:16:09.070Z,100139.75
2022-10-10T16:18:40.344Z,100133.97
2022-10-10T16:21:19.729Z,100128.03
2022-10-10T16:23:48.561Z,100134.63
2022-10-10T16:26:22.408Z,100131.94
2022-10-10T16:28:50.386Z,100134.97
2022-10-10T16:31:19.674Z,100133.44
2022-10-10T16:33:48.368Z,100125.28
2022-10-10T16:36:21.713Z,100127.84
2022-10-10T16:38:50.113Z,100132.22
2022-10-10T16:41:42.482Z,100134.44
2022-10-10T16:44:06.627Z,100131.53
2022-10-10T16:46:34.025Z,100129.31
2022-10-10T16:49:01.632Z,100127.44
2022-10-10T16:51:30.213Z,100133.22
2022-10-10T16:54:02.005Z,100140.19
2022-10-10T16:56:30.283Z,100135.22
2022-10-10T16:58:59.764Z,100133.34
2022-10-10T17:01:28.710Z,100137.25
2022-10-10T17:03:58.946Z,100139.09
2022-10-10T17:06:30.084Z,100141.31
2022-10-10T17:09:03.359Z,100137.22
2022-10-10T17:11:31.250Z,100146.91
2022-10-10T17:13:59.475Z,100150.81
2022-10-10T17:19:16.293Z,100154.12
2022-10-10T17:21:44.093Z,100156.31
2022-10-10T17:24:11.536Z,100150.72
2022-10-10T17:26:38.988Z,100139.25
2022-10-10T17:29:06.918Z,100143.53
2022-10-10T17:31:34.479Z,100145.84
2022-10-10T17:34:01.891Z,100144.19
2022-10-10T17:36:29.689Z,100154.91
2022-10-10T17:38:57.311Z,100148.91
2022-10-10T17:41:24.808Z,100141.34
2022-10-10T17:43:52.784Z,100144.19
2022-10-10T17:46:40.880Z,100135.06
2022-10-10T17:49:10.609Z,100126.91
2022-10-10T17:51:39.728Z,100130.81
2022-10-10T17:54:07.546Z,100131.25
2022-10-10T17:56:35.752Z,100127.72
2022-10-10T17:59:06.604Z,100131.97
2022-10-10T18:01:35.366Z,100129.75
2022-10-10T18:04:03.468Z,100137.50
2022-10-10T18:06:31.671Z,100133.56
2022-10-10T18:08:59.993Z,100128.47
2022-10-10T18:11:30.510Z,100128.75
2022-10-10T18:14:00.695Z,100139.59
2022-10-10T18:16:32.970Z,100133.47
2022-10-10T18:19:01.449Z,100126.16
2022-10-10T18:21:29.266Z,100144.59
2022-10-10T18:23:56.794Z,100136.25
2022-10-10T18:26:26.006Z,100126.50
2022-10-10T18:28:55.758Z,100127.75
2022-10-10T18:31:28.996Z,100129.59
2022-10-10T18:33:57.121Z,100127.81
2022-10-10T18:36:27.652Z,100129.16
2022-10-10T18:38:59.427Z,100126.91
2022-10-10T18:41:33.951Z,100125.84
2022-10-10T18:44:13.249Z,100127.00
2022-10-10T18:46:41.014Z,100130.47
2022-10-10T18:49:09.155Z,100131.81
2022-10-10T18:51:37.466Z,100129.69
2022-10-10T18:54:08.422Z,100137.59
2022-10-10T18:56:38.271Z,100135.13
2022-10-10T18:59:07.486Z,100135.50
2022-10-10T19:01:36.760Z,100135.37
2022-10-10T19:04:05.228Z,100131.22
2022-10-10T19:06:33.245Z,100127.25
2022-10-10T19:09:01.641Z,100128.09
2022-10-10T19:11:31.761Z,100125.75
2022-10-10T19:14:01.490Z,100130.31
2022-10-10T19:16:29.100Z,100129.03
2022-10-10T19:18:58.746Z,100136.44
2022-10-10T19:21:29.569Z,100130.00
2022-10-10T19:23:59.866Z,100131.94
2022-10-10T19:26:33.173Z,100131.34
2022-10-10T19:29:07.024Z,100129.16
2022-10-10T19:31:36.394Z,100134.44
2022-10-10T19:34:04.121Z,100127.06
2022-10-10T19:36:31.556Z,100129.69
2022-10-10T19:39:00.232Z,100126.38
2022-10-10T19:41:28.323Z,100129.25
2022-10-10T19:43:58.029Z,100131.41
2022-10-10T19:46:27.725Z,100133.72
2022-10-10T19:48:58.075Z,100133.41
2022-10-10T19:51:27.937Z,100144.72
2022-10-10T19:53:56.357Z,100141.94
2022-10-10T19:56:24.961Z,100143.13
2022-10-10T19:58:57.351Z,100136.88
2022-10-10T20:01:29.383Z,100138.91
2022-10-10T20:03:58.423Z,100137.38
2022-10-10T20:06:26.352Z,100140.97
2022-10-10T20:08:54.122Z,100134.19
2022-10-10T20:11:23.310Z,100133.47
2022-10-10T20:13:55.258Z,100130.47
2022-10-10T20:16:24.296Z,100133.38
2022-10-10T20:18:51.877Z,100131.53
2022-10-10T20:21:22.979Z,100132.37
2022-10-10T20:23:50.897Z,100132.53
2022-10-10T20:26:21.369Z,100129.69
2022-10-10T20:28:50.215Z,100130.16
2022-10-10T20:31:29.931Z,100126.34
2022-10-10T20:33:58.876Z,100129.09
2022-10-10T20:36:27.180Z,100126.31
2022-10-10T20:38:56.295Z,100132.53
2022-10-10T20:41:25.489Z,100137.47
2022-10-10T20:44:02.492Z,100128.97
2022-10-10T20:46:32.688Z,100129.09
2022-10-10T20:49:02.701Z,100123.69
2022-10-10T20:51:30.571Z,100119.41
2022-10-10T20:54:03.227Z,100123.41
2022-10-10T20:56:31.576Z,100128.06
2022-10-10T20:58:59.954Z,100127.44
2022-10-10T21:01:29.445Z,100120.41
2022-10-10T21:03:58.672Z,100117.41
2022-10-10T21:06:30.187Z,100119.50
2022-10-10T21:09:00.173Z,100117.34
2022-10-10T21:11:27.832Z,100124.16
2022-10-10T21:13:57.441Z,100129.81
2022-10-10T21:16:27.991Z,100126.25
2022-10-10T21:18:58.353Z,100125.25
2022-10-10T21:21:28.310Z,100126.25
2022-10-10T21:23:56.660Z,100129.56
2022-10-10T21:26:26.655Z,100131.41
2022-10-10T21:28:55.071Z,100140.19
2022-10-10T21:31:27.609Z,100132.19
2022-10-10T21:33:55.894Z,100125.97
2022-10-10T21:36:25.238Z,100126.59
2022-10-10T21:38:56.934Z,100131.31
2022-10-10T21:41:25.102Z,100124.00
2022-10-10T21:43:54.975Z,100128.97
2022-10-10T21:46:24.531Z,100131.97
2022-10-10T21:48:53.381Z,100126.72
2022-10-10T21:51:21.490Z,100136.72
2022-10-10T21:53:49.582Z,100138.25
2022-10-10T21:56:17.846Z,100135.41
2022-10-10T21:58:45.355Z,100136.25
2022-10-10T22:01:20.919Z,100129.16
2022-10-10T22:03:50.354Z,100138.81
2022-10-10T22:06:20.710Z,100131.41
2022-10-10T22:08:49.220Z,100129.50
2022-10-10T22:11:19.570Z,100128.31
2022-10-10T22:13:47.294Z,100123.91
2022-10-10T22:16:14.938Z,100127.16
2022-10-10T22:18:42.679Z,100128.87
2022-10-10T22:21:12.904Z,100125.59
2022-10-10T22:23:40.529Z,100122.31
2022-10-10T22:26:10.787Z,100121.47
2022-10-10T22:28:38.909Z,100118.22
2022-10-10T22:31:12.088Z,100111.06
2022-10-10T22:33:39.874Z,100113.62
2022-10-10T22:36:08.637Z,100102.25
2022-10-10T22:38:38.801Z,100108.94
2022-10-10T22:41:06.949Z,100110.63
2022-10-10T22:43:34.698Z,100111.50
2022-10-10T22:46:02.572Z,100111.75
2022-10-10T22:48:30.773Z,100111.34
2022-10-10T22:51:03.707Z,100106.34
2022-10-10T22:53:31.674Z,100114.59
2022-10-10T22:55:59.526Z,100107.50
2022-10-10T22:58:27.122Z,100105.22
2022-10-10T23:00:54.873Z,100107.06
2022-10-10T23:03:22.398Z,100108.66
2022-10-10T23:05:49.892Z,100110.53
2022-10-10T23:08:17.581Z,100103.66
2022-10-10T23:10:45.641Z,100106.06
2022-10-10T23:13:13.080Z,100102.38
2022-10-10T23:15:40.896Z,100108.63
2022-10-10T23:18:08.348Z,100112.19
2022-10-10T23:20:35.880Z,100106.78
2022-10-10T23:23:03.572Z,100100.50
2022-10-10T23:25:31.083Z,100104.94
2022-10-10T23:27:58.812Z,100106.53
2022-10-10T23:30:27.418Z,100100.56
2022-10-10T23:32:54.877Z,100096.69
2022-10-10T23:35:22.375Z,100100.25
2022-10-10T23:37:50.070Z,100097.56
2022-10-10T23:40:17.611Z,100103.25
2022-10-10T23:42:45.112Z,100099.53
2022-10-10T23:45:12.832Z,100100.56
2022-10-10T23:47:40.245Z,100096.44
2022-10-10T23:50:08.249Z,100096.16
2022-10-10T23:52:36.001Z,100094.97
2022-10-10T23:55:03.761Z,100101.09
2022-10-10T23:57:31.626Z,100092.44
2022-10-10T23:59:59.550Z,100097.13
